Time;durP1;ratioP1;P1;durP2;ratioP2;P2;SDS_P1;SDS_P2;PMS_P1;PMS_P2;Temp;Humidity;BMP_temperature;BMP_pressure;BME280_temperature;BME280_humidity;BME280_pressure;Samples;Min_cycle;Max_cycle;Signal;HPM_P1;HPM_P2
2022/06/06 00:00:51;;;;;;;;;;;;;;;;;;2205078;67;1996;-72
2022/06/06 00:03:24;;;;;;;;;;;;;;;;;;2206829;59;1167;-73
2022/06/06 00:05:58;;;;;;;;;;;;;;;;;;2206629;59;1182;-73
2022/06/06 00:08:31;;;;;;;;;;;;;;;;;;2205648;67;1080;-75
2022/06/06 00:11:04;;;;;;;;;;;;;;;;;;2206492;59;1411;-73
2022/06/06 00:13:41;;;;;;;;;;;;;;;;;;2210424;53;3754;-64
2022/06/06 00:16:14;;;;;;;;;;;;;;;;;;2210624;59;1327;-65
2022/06/06 00:18:47;;;;;;;;;;;;;;;;;;2211355;67;1236;-63
2022/06/06 00:21:21;;;;;;;;;;;;;;;;;;2208307;67;1988;-64
2022/06/06 00:23:59;;;;;;;;;;;;;;;;;;2208023;67;1092;-65
2022/06/06 00:26:32;;;;;;;;;;;;;;;;;;2208604;59;1460;-64
2022/06/06 00:29:09;;;;;;;;;;;;;;;;;;2207419;67;1071;-64
2022/06/06 00:37:23;;;;;;;;;;;;;;;;;;2208358;67;1179;-63
2022/06/06 00:39:56;;;;;;;;;;;;;;;;;;2206688;59;1940;-62
2022/06/06 00:42:31;;;;;;;;;;;;;;;;;;2206599;59;1740;-65
2022/06/06 00:45:24;;;;;;;;;;;;;;;;;;2208976;67;1132;-63
2022/06/06 00:48:00;;;;;;;;;;;;;;;;;;2208530;67;1044;-63
2022/06/06 00:50:37;;;;;;;;;;;;;;;;;;2207822;59;1243;-64
2022/06/06 00:53:10;;;;;;;;;;;;;;;;;;2207211;67;1089;-66
2022/06/06 00:55:47;;;;;;;;;;;;;;;;;;2208525;67;1167;-64
2022/06/06 00:58:22;;;;;;;;;;;;;;;;;;2208647;67;1602;-65
2022/06/06 01:00:59;;;;;;;;;;;;;;;;;;2207282;67;1991;-63
2022/06/06 01:03:32;;;;;;;;;;;;;;;;;;2207018;59;1221;-63
2022/06/06 01:06:07;;;;;;;;;;;;;;;;;;2207643;59;1446;-61
2022/06/06 01:08:41;;;;;;;;;;;;;;;;;;2207599;67;1229;-65
2022/06/06 01:11:15;;;;;;;;;;;;;;;;;;2206225;59;1803;-63
2022/06/06 01:13:49;;;;;;;;;;;;;;;;;;2207025;59;1528;-63
2022/06/06 01:16:33;;;;;;;;;;;;;;;;;;2207858;59;1764;-65
2022/06/06 01:19:18;;;;;;;;;;;;;;;;;;2207248;67;1048;-65
2022/06/06 01:22:10;;;;;;;;;;;;;;;;;;2207648;67;1999;-62
2022/06/06 01:25:11;;;;;;;;;;;;;;;;;;2207449;67;1079;-64
2022/06/06 01:27:52;;;;;;;;;;;;;;;;;;2207416;67;1186;-63
2022/06/06 01:30:30;;;;;;;;;;;;;;;;;;2206837;59;1348;-63
2022/06/06 01:33:04;;;;;;;;;;;;;;;;;;2206766;59;1316;-62
2022/06/06 01:35:39;;;;;;;;;;;;;;;;;;2206535;59;1604;-65
2022/06/06 01:38:13;;;;;;;;;;;;;;;;;;2206649;59;1878;-65
2022/06/06 01:40:53;;;;;;;;;;;;;;;;;;2207712;59;2021;-63
2022/06/06 01:43:29;;;;;;;;;;;;;;;;;;2207318;67;1124;-65
2022/06/06 01:46:08;;;;;;;;;;;;;;;;;;2208252;67;1247;-63
2022/06/06 01:48:44;;;;;;;;;;;;;;;;;;2208706;59;1094;-65
2022/06/06 01:51:20;;;;;;;;;;;;;;;;;;2208058;67;1264;-64
2022/06/06 01:53:54;;;;;;;;;;;;;;;;;;2208643;67;1111;-64
2022/06/06 01:56:28;;;;;;;;;;;;;;;;;;2207613;67;1124;-65
2022/06/06 01:59:02;;;;;;;;;;;;;;;;;;2207514;59;1220;-63
2022/06/06 02:01:38;;;;;;;;;;;;;;;;;;2207039;59;1924;-61
2022/06/06 02:04:11;;;;;;;;;;;;;;;;;;2207575;59;1253;-59
2022/06/06 02:06:44;;;;;;;;;;;;;;;;;;2207683;67;1182;-64
2022/06/06 02:09:17;;;;;;;;;;;;;;;;;;2207926;67;1256;-63
2022/06/06 02:11:51;;;;;;;;;;;;;;;;;;2207977;59;1293;-63
2022/06/06 02:14:24;;;;;;;;;;;;;;;;;;2207121;59;1100;-62
2022/06/06 02:17:00;;;;;;;;;;;;;;;;;;2208672;67;1219;-62
2022/06/06 02:19:33;;;;;;;;;;;;;;;;;;2207683;59;2037;-65
2022/06/06 02:22:06;;;;;;;;;;;;;;;;;;2208081;67;1995;-63
2022/06/06 02:24:39;;;;;;;;;;;;;;;;;;2208095;59;1755;-63
2022/06/06 02:27:13;;;;;;;;;;;;;;;;;;2207744;59;1225;-64
2022/06/06 02:29:46;;;;;;;;;;;;;;;;;;2206785;59;2043;-62
2022/06/06 02:32:22;;;;;;;;;;;;;;;;;;2207150;59;1744;-65
2022/06/06 02:34:55;;;;;;;;;;;;;;;;;;2208137;67;1134;-64
2022/06/06 02:37:28;;;;;;;;;;;;;;;;;;2207447;60;1061;-62
2022/06/06 02:40:01;;;;;;;;;;;;;;;;;;2207568;59;2084;-63
2022/06/06 02:42:34;;;;;;;;;;;;;;;;;;2207636;59;1934;-63
2022/06/06 02:45:09;;;;;;;;;;;;;;;;;;2208269;67;1102;-62
2022/06/06 02:47:47;;;;;;;;;;;;;;;;;;2207094;59;1673;-64
2022/06/06 02:50:22;;;;;;;;;;;;;;;;;;2207641;67;1200;-62
2022/06/06 02:52:55;;;;;;;;;;;;;;;;;;2207518;59;1005;-65
2022/06/06 02:55:28;;;;;;;;;;;;;;;;;;2208492;59;1236;-64
2022/06/06 02:58:02;;;;;;;;;;;;;;;;;;2206586;59;1575;-63
2022/06/06 03:00:41;;;;;;;;;;;;;;;;;;2206931;59;1987;-63
2022/06/06 03:03:17;;;;;;;;;;;;;;;;;;2205272;59;2678;-62
2022/06/06 03:05:55;;;;;;;;;;;;;;;;;;2207188;59;1291;-64
2022/06/06 03:08:36;;;;;;;;;;;;;;;;;;2206855;59;1410;-65
2022/06/06 03:11:17;;;;;;;;;;;;;;;;;;2205651;59;1590;-63
2022/06/06 03:14:08;;;;;;;;;;;;;;;;;;2207479;59;1229;-65
2022/06/06 03:22:52;;;;;;;;;;;;;;;;;;2208854;67;2001;-65
2022/06/06 03:25:30;;;;;;;;;;;;;;;;;;2207353;59;1479;-64
2022/06/06 03:28:09;;;;;;;;;;;;;;;;;;2209127;67;1202;-64
2022/06/06 03:30:46;;;;;;;;;;;;;;;;;;2207221;67;1213;-65
2022/06/06 03:33:24;;;;;;;;;;;;;;;;;;2207952;67;1266;-64
2022/06/06 03:36:04;;;;;;;;;;;;;;;;;;2210121;67;1167;-63
2022/06/06 03:38:42;;;;;;;;;;;;;;;;;;2206708;59;1919;-64
2022/06/06 03:41:20;;;;;;;;;;;;;;;;;;2207780;59;2038;-64
2022/06/06 03:43:57;;;;;;;;;;;;;;;;;;2206660;59;1634;-63
2022/06/06 03:46:36;;;;;;;;;;;;;;;;;;2207406;59;1215;-64
2022/06/06 03:49:19;;;;;;;;;;;;;;;;;;2209033;67;1169;-65
2022/06/06 03:52:02;;;;;;;;;;;;;;;;;;2207685;59;2332;-64
2022/06/06 03:54:42;;;;;;;;;;;;;;;;;;2207467;59;2535;-64
2022/06/06 03:57:16;;;;;;;;;;;;;;;;;;2209709;67;1293;-64
2022/06/06 03:59:51;;;;;;;;;;;;;;;;;;2208006;59;1643;-62
2022/06/06 04:02:28;;;;;;;;;;;;;;;;;;2208145;59;1935;-64
2022/06/06 04:05:02;;;;;;;;;;;;;;;;;;2208661;59;1617;-65
2022/06/06 04:07:38;;;;;;;;;;;;;;;;;;2208803;67;1219;-61
2022/06/06 04:10:12;;;;;;;;;;;;;;;;;;2210440;67;1287;-64
2022/06/06 04:12:59;;;;;;;;;;;;;;;;;;2207379;59;1640;-65
2022/06/06 04:15:39;;;;;;;;;;;;;;;;;;2207956;59;1201;-65
2022/06/06 04:18:18;;;;;;;;;;;;;;;;;;2207891;59;2744;-64
2022/06/06 04:20:57;;;;;;;;;;;;;;;;;;2208662;67;1979;-66
2022/06/06 04:23:42;;;;;;;;;;;;;;;;;;2208760;67;1106;-65
2022/06/06 04:26:19;;;;;;;;;;;;;;;;;;2209374;67;1190;-65
2022/06/06 04:28:59;;;;;;;;;;;;;;;;;;2208083;59;1102;-64
2022/06/06 04:31:37;;;;;;;;;;;;;;;;;;2208704;67;1220;-62
2022/06/06 04:34:17;;;;;;;;;;;;;;;;;;2207610;67;1282;-63
2022/06/06 04:36:55;;;;;;;;;;;;;;;;;;2206073;59;1547;-64
2022/06/06 04:39:34;;;;;;;;;;;;;;;;;;2207702;59;2023;-64
2022/06/06 04:42:13;;;;;;;;;;;;;;;;;;2207945;59;2121;-63
2022/06/06 04:44:50;;;;;;;;;;;;;;;;;;2207172;59;1131;-61
2022/06/06 04:47:27;;;;;;;;;;;;;;;;;;2206607;67;2281;-65
2022/06/06 04:50:01;;;;;;;;;;;;;;;;;;2207610;67;1223;-63
2022/06/06 04:52:35;;;;;;;;;;;;;;;;;;2208559;67;1116;-64
2022/06/06 04:55:13;;;;;;;;;;;;;;;;;;2208425;67;1104;-64
2022/06/06 04:57:48;;;;;;;;;;;;;;;;;;2207067;59;1186;-63
2022/06/06 05:00:21;;;;;;;;;;;;;;;;;;2206027;67;1274;-64
2022/06/06 05:02:54;;;;;;;;;;;;;;;;;;2206409;59;2008;-64
2022/06/06 05:05:30;;;;;;;;;;;;;;;;;;2208039;67;1196;-65
2022/06/06 05:08:11;;;;;;;;;;;;;;;;;;2207546;67;1215;-64
2022/06/06 05:10:54;;;;;;;;;;;;;;;;;;2207910;59;1354;-61
2022/06/06 05:13:45;;;;;;;;;;;;;;;;;;2208118;59;1720;-65
2022/06/06 05:16:29;;;;;;;;;;;;;;;;;;2203434;67;1493;-60
2022/06/06 05:19:26;;;;;;;;;;;;;;;;;;2208164;67;1218;-63
2022/06/06 05:22:05;;;;;;;;;;;;;;;;;;2208726;60;1986;-64
2022/06/06 05:24:51;;;;;;;;;;;;;;;;;;2207911;67;1097;-63
2022/06/06 05:27:36;;;;;;;;;;;;;;;;;;2207432;59;1264;-63
2022/06/06 05:30:13;;;;;;;;;;;;;;;;;;2208432;67;1171;-64
2022/06/06 05:33:07;;;;;;;;;;;;;;;;;;2208420;67;1088;-62
2022/06/06 05:35:51;;;;;;;;;;;;;;;;;;2206911;67;1665;-62
2022/06/06 05:38:31;;;;;;;;;;;;;;;;;;2208302;59;2011;-65
2022/06/06 05:41:11;;;;;;;;;;;;;;;;;;2208640;59;2070;-64
2022/06/06 05:43:52;;;;;;;;;;;;;;;;;;2207865;59;1231;-63
2022/06/06 05:46:33;;;;;;;;;;;;;;;;;;2207178;67;1188;-62
2022/06/06 05:49:20;;;;;;;;;;;;;;;;;;2207947;67;1111;-65
2022/06/06 05:52:01;;;;;;;;;;;;;;;;;;2207670;67;1271;-63
2022/06/06 05:54:55;;;;;;;;;;;;;;;;;;2207552;67;1108;-65
2022/06/06 05:57:36;;;;;;;;;;;;;;;;;;2208565;59;3262;-65
2022/06/06 06:00:19;;;;;;;;;;;;;;;;;;2208006;59;1366;-64
2022/06/06 06:03:07;;;;;;;;;;;;;;;;;;2208235;59;1936;-65
2022/06/06 06:05:46;;;;;;;;;;;;;;;;;;2205484;67;2006;-63
2022/06/06 06:08:26;;;;;;;;;;;;;;;;;;2208279;67;1264;-66
2022/06/06 06:11:13;;;;;;;;;;;;;;;;;;2208515;59;1741;-65
2022/06/06 06:13:53;;;;;;;;;;;;;;;;;;2205090;59;1778;-65
2022/06/06 06:16:33;;;;;;;;;;;;;;;;;;2203232;59;1752;-63
2022/06/06 06:19:09;;;;;;;;;;;;;;;;;;2207181;67;1102;-63
2022/06/06 06:21:44;;;;;;;;;;;;;;;;;;2206428;59;2109;-61
2022/06/06 06:24:20;;;;;;;;;;;;;;;;;;2207308;59;1611;-63
2022/06/06 06:26:54;;;;;;;;;;;;;;;;;;2205900;59;2425;-66
2022/06/06 06:29:28;;;;;;;;;;;;;;;;;;2207427;59;1300;-65
2022/06/06 06:32:13;;;;;;;;;;;;;;;;;;2193688;59;116585;-62
2022/06/06 06:34:54;;;;;;;;;;;;;;;;;;2204560;67;1147;-64
2022/06/06 06:37:37;;;;;;;;;;;;;;;;;;2205251;67;1272;-65
2022/06/06 06:40:16;;;;;;;;;;;;;;;;;;2203121;59;2350;-65
2022/06/06 06:42:59;;;;;;;;;;;;;;;;;;2205153;59;2305;-64
2022/06/06 06:45:36;;;;;;;;;;;;;;;;;;2203052;59;1195;-65
2022/06/06 06:48:14;;;;;;;;;;;;;;;;;;2204242;67;1115;-65
2022/06/06 06:50:53;;;;;;;;;;;;;;;;;;2203810;59;1221;-65
2022/06/06 06:53:41;;;;;;;;;;;;;;;;;;2202469;59;1607;-65
2022/06/06 06:56:22;;;;;;;;;;;;;;;;;;2203562;67;1304;-62
2022/06/06 06:58:57;;;;;;;;;;;;;;;;;;2205006;59;1566;-63
2022/06/06 07:01:35;;;;;;;;;;;;;;;;;;2202867;67;1228;-64
2022/06/06 07:10:16;;;;;;;;;;;;;;;;;;2203604;67;1241;-63
2022/06/06 07:13:08;;;;;;;;;;;;;;;;;;2204488;59;1674;-64
2022/06/06 07:15:45;;;;;;;;;;;;;;;;;;2203698;59;1991;-66
2022/06/06 07:18:20;;;;;;;;;;;;;;;;;;2202722;59;1655;-63
2022/06/06 07:20:56;;;;;;;;;;;;;;;;;;2203652;67;1161;-65
2022/06/06 07:23:33;;;;;;;;;;;;;;;;;;2203658;67;1943;-66
2022/06/06 07:26:06;;;;;;;;;;;;;;;;;;2203894;67;1112;-65
2022/06/06 07:28:39;;;;;;;;;;;;;;;;;;2202199;59;2572;-64
2022/06/06 07:31:17;;;;;;;;;;;;;;;;;;2203307;67;1211;-64
2022/06/06 07:34:00;;;;;;;;;;;;;;;;;;2204567;59;1554;-66
2022/06/06 07:36:41;;;;;;;;;;;;;;;;;;2203811;59;1779;-62
2022/06/06 07:39:20;;;;;;;;;;;;;;;;;;2202460;59;1523;-63
2022/06/06 07:42:02;;;;;;;;;;;;;;;;;;2203475;59;1936;-62
2022/06/06 07:44:43;;;;;;;;;;;;;;;;;;2203502;67;1288;-64
2022/06/06 07:47:21;;;;;;;;;;;;;;;;;;2205165;67;1020;-64
2022/06/06 07:49:57;;;;;;;;;;;;;;;;;;2204126;59;1530;-65
2022/06/06 07:52:39;;;;;;;;;;;;;;;;;;2202286;59;1901;-66
2022/06/06 07:55:17;;;;;;;;;;;;;;;;;;2204024;67;1157;-64
2022/06/06 07:57:55;;;;;;;;;;;;;;;;;;2203711;59;1487;-60
2022/06/06 08:00:29;;;;;;;;;;;;;;;;;;2203439;59;1850;-65
2022/06/06 08:03:11;;;;;;;;;;;;;;;;;;2204967;67;1937;-63
2022/06/06 08:06:05;;;;;;;;;;;;;;;;;;2204352;67;1100;-62
2022/06/06 08:08:46;;;;;;;;;;;;;;;;;;2204854;59;1495;-62
2022/06/06 08:11:22;;;;;;;;;;;;;;;;;;2202671;59;1534;-64
2022/06/06 08:14:02;;;;;;;;;;;;;;;;;;2205776;59;2091;-65
2022/06/06 08:16:42;;;;;;;;;;;;;;;;;;2204733;59;1553;-64
2022/06/06 08:19:33;;;;;;;;;;;;;;;;;;2204443;67;1136;-64
2022/06/06 08:22:08;;;;;;;;;;;;;;;;;;2205210;59;1936;-64
2022/06/06 08:24:46;;;;;;;;;;;;;;;;;;2205327;59;1786;-64
2022/06/06 08:27:20;;;;;;;;;;;;;;;;;;2204715;59;2189;-64
2022/06/06 08:29:53;;;;;;;;;;;;;;;;;;2203600;59;2612;-64
2022/06/06 08:32:28;;;;;;;;;;;;;;;;;;2205214;67;1283;-65
2022/06/06 08:35:02;;;;;;;;;;;;;;;;;;2203620;59;1703;-63
2022/06/06 08:37:46;;;;;;;;;;;;;;;;;;2204266;67;1201;-65
2022/06/06 08:40:46;;;;;;;;;;;;;;;;;;2199412;59;1643;-65
2022/06/06 08:43:30;;;;;;;;;;;;;;;;;;2196549;59;1983;-64
2022/06/06 08:46:13;;;;;;;;;;;;;;;;;;2202889;67;1586;-64
2022/06/06 08:48:56;;;;;;;;;;;;;;;;;;2203490;59;1651;-65
2022/06/06 08:51:41;;;;;;;;;;;;;;;;;;2202047;59;1481;-65
2022/06/06 08:54:33;;;;;;;;;;;;;;;;;;2203954;59;1257;-65
2022/06/06 08:57:13;;;;;;;;;;;;;;;;;;2204950;67;1225;-62
2022/06/06 09:00:01;;;;;;;;;;;;;;;;;;2203704;67;1233;-65
2022/06/06 09:02:52;;;;;;;;;;;;;;;;;;2205122;59;1972;-65
2022/06/06 09:05:52;;;;;;;;;;;;;;;;;;2204696;59;1937;-66
2022/06/06 09:08:52;;;;;;;;;;;;;;;;;;2203167;59;1750;-63
2022/06/06 09:11:39;;;;;;;;;;;;;;;;;;2195841;59;2113;-64
2022/06/06 09:14:25;;;;;;;;;;;;;;;;;;2203505;59;2201;-64
2022/06/06 09:17:17;;;;;;;;;;;;;;;;;;2202726;67;1145;-63
2022/06/06 09:20:08;;;;;;;;;;;;;;;;;;2203462;67;1339;-64
2022/06/06 09:23:00;;;;;;;;;;;;;;;;;;2199135;59;1982;-66
2022/06/06 09:25:37;;;;;;;;;;;;;;;;;;2204625;59;1939;-65
2022/06/06 09:28:35;;;;;;;;;;;;;;;;;;2202571;59;2208;-64
2022/06/06 09:31:34;;;;;;;;;;;;;;;;;;2201672;59;2531;-65
2022/06/06 09:34:22;;;;;;;;;;;;;;;;;;2200697;59;2282;-65
2022/06/06 09:37:06;;;;;;;;;;;;;;;;;;2203044;59;1786;-64
2022/06/06 09:39:55;;;;;;;;;;;;;;;;;;2203598;67;1223;-62
2022/06/06 09:42:40;;;;;;;;;;;;;;;;;;2205027;60;1201;-65
2022/06/06 09:45:30;;;;;;;;;;;;;;;;;;2204965;67;1264;-64
2022/06/06 09:48:17;;;;;;;;;;;;;;;;;;2203794;59;1242;-64
2022/06/06 09:51:11;;;;;;;;;;;;;;;;;;2204599;59;1204;-63
2022/06/06 10:00:05;;;;;;;;;;;;;;;;;;2198166;59;1686;-66
2022/06/06 10:02:56;;;;;;;;;;;;;;;;;;2205127;59;1994;-64
2022/06/06 10:05:45;;;;;;;;;;;;;;;;;;2204350;67;1573;-65
2022/06/06 10:08:32;;;;;;;;;;;;;;;;;;2204528;59;1291;-64
2022/06/06 10:11:25;;;;;;;;;;;;;;;;;;2204880;59;1442;-65
2022/06/06 10:14:08;;;;;;;;;;;;;;;;;;2203777;59;2736;-65
2022/06/06 10:16:52;;;;;;;;;;;;;;;;;;2204430;59;1194;-66
2022/06/06 10:19:32;;;;;;;;;;;;;;;;;;2203960;67;1253;-65
2022/06/06 10:22:11;;;;;;;;;;;;;;;;;;2203535;59;1225;-65
2022/06/06 10:25:00;;;;;;;;;;;;;;;;;;2204444;67;1984;-65
2022/06/06 10:27:42;;;;;;;;;;;;;;;;;;2204221;67;1438;-61
2022/06/06 10:30:22;;;;;;;;;;;;;;;;;;2201748;59;2238;-65
2022/06/06 10:33:22;;;;;;;;;;;;;;;;;;2202490;67;2698;-65
2022/06/06 10:36:01;;;;;;;;;;;;;;;;;;2202092;59;1799;-64
2022/06/06 10:38:52;;;;;;;;;;;;;;;;;;2203675;67;1164;-66
2022/06/06 10:41:35;;;;;;;;;;;;;;;;;;2202882;59;2068;-65
2022/06/06 10:44:19;;;;;;;;;;;;;;;;;;2204657;59;1933;-65
2022/06/06 10:47:01;;;;;;;;;;;;;;;;;;2203954;59;1361;-65
2022/06/06 10:49:40;;;;;;;;;;;;;;;;;;2203857;67;1266;-65
2022/06/06 10:52:28;;;;;;;;;;;;;;;;;;2202906;59;1713;-63
2022/06/06 10:55:35;;;;;;;;;;;;;;;;;;2203247;67;1108;-64
2022/06/06 10:58:23;;;;;;;;;;;;;;;;;;2187799;60;1295;-62
2022/06/06 11:01:14;;;;;;;;;;;;;;;;;;2187905;59;1261;-65
2022/06/06 11:04:06;;;;;;;;;;;;;;;;;;2198629;59;1939;-65
2022/06/06 11:06:55;;;;;;;;;;;;;;;;;;2203235;59;1563;-65
2022/06/06 11:09:55;;;;;;;;;;;;;;;;;;2204827;59;1302;-64
2022/06/06 11:12:38;;;;;;;;;;;;;;;;;;2195670;59;1566;-65
2022/06/06 11:15:12;;;;;;;;;;;;;;;;;;2204571;59;2052;-62
2022/06/06 11:18:08;;;;;;;;;;;;;;;;;;2204224;59;1194;-64
2022/06/06 11:21:00;;;;;;;;;;;;;;;;;;2203423;67;1221;-65
2022/06/06 11:23:41;;;;;;;;;;;;;;;;;;2201873;59;1977;-64
2022/06/06 11:26:32;;;;;;;;;;;;;;;;;;2202764;59;1788;-65
2022/06/06 11:29:18;;;;;;;;;;;;;;;;;;2203287;67;1731;-63
2022/06/06 11:31:55;;;;;;;;;;;;;;;;;;2201949;59;2581;-64
2022/06/06 11:34:53;;;;;;;;;;;;;;;;;;2202682;59;1242;-65
2022/06/06 11:37:38;;;;;;;;;;;;;;;;;;2205220;59;1164;-65
2022/06/06 11:40:30;;;;;;;;;;;;;;;;;;2202435;59;1505;-66
2022/06/06 11:43:23;;;;;;;;;;;;;;;;;;2203792;59;1204;-65
2022/06/06 11:46:17;;;;;;;;;;;;;;;;;;2203251;59;1810;-65
2022/06/06 11:49:05;;;;;;;;;;;;;;;;;;2203718;59;1487;-62
2022/06/06 11:51:54;;;;;;;;;;;;;;;;;;2203195;59;1475;-63
2022/06/06 11:54:56;;;;;;;;;;;;;;;;;;2204291;67;1412;-64
2022/06/06 11:57:48;;;;;;;;;;;;;;;;;;2203964;59;1443;-65
2022/06/06 12:00:26;;;;;;;;;;;;;;;;;;2205869;59;1286;-64
2022/06/06 12:03:15;;;;;;;;;;;;;;;;;;2205968;59;1492;-64
2022/06/06 12:06:00;;;;;;;;;;;;;;;;;;2205964;67;1992;-65
2022/06/06 12:08:39;;;;;;;;;;;;;;;;;;2204272;59;1152;-62
2022/06/06 12:11:30;;;;;;;;;;;;;;;;;;2204585;59;1276;-61
2022/06/06 12:14:21;;;;;;;;;;;;;;;;;;2203236;59;2087;-65
2022/06/06 12:17:06;;;;;;;;;;;;;;;;;;2200700;59;1916;-64
2022/06/06 12:19:50;;;;;;;;;;;;;;;;;;2203031;59;1352;-62
2022/06/06 12:22:38;;;;;;;;;;;;;;;;;;2204539;59;1223;-64
2022/06/06 12:25:30;;;;;;;;;;;;;;;;;;2204464;67;1932;-65
2022/06/06 12:28:12;;;;;;;;;;;;;;;;;;2202110;67;1394;-61
2022/06/06 12:30:52;;;;;;;;;;;;;;;;;;2204683;59;1548;-62
2022/06/06 12:33:30;;;;;;;;;;;;;;;;;;2201607;59;2410;-63
2022/06/06 12:36:05;;;;;;;;;;;;;;;;;;2202133;59;1674;-63
2022/06/06 12:38:48;;;;;;;;;;;;;;;;;;2203458;59;1520;-65
2022/06/06 12:41:27;;;;;;;;;;;;;;;;;;2203161;59;1877;-64
2022/06/06 12:44:02;;;;;;;;;;;;;;;;;;2204286;67;1997;-62
2022/06/06 12:46:46;;;;;;;;;;;;;;;;;;2205381;59;1278;-64
2022/06/06 12:49:46;;;;;;;;;;;;;;;;;;2204002;67;1241;-62
2022/06/06 12:52:32;;;;;;;;;;;;;;;;;;2194791;59;1467;-64
2022/06/06 12:55:33;;;;;;;;;;;;;;;;;;2204541;67;1156;-65
2022/06/06 12:58:13;;;;;;;;;;;;;;;;;;2203105;59;1103;-64
2022/06/06 13:03:47;;;;;;;;;;;;;;;;;;2203604;59;1936;-64
2022/06/06 13:06:27;;;;;;;;;;;;;;;;;;2203029;67;1149;-62
2022/06/06 13:09:14;;;;;;;;;;;;;;;;;;2203650;67;1085;-63
2022/06/06 13:11:51;;;;;;;;;;;;;;;;;;2203089;59;1602;-64
2022/06/06 13:14:37;;;;;;;;;;;;;;;;;;2203894;59;2075;-62
2022/06/06 13:17:20;;;;;;;;;;;;;;;;;;2203681;67;1171;-61
2022/06/06 13:20:10;;;;;;;;;;;;;;;;;;2203683;67;1142;-63
2022/06/06 13:22:52;;;;;;;;;;;;;;;;;;2202187;59;1794;-64
2022/06/06 13:25:35;;;;;;;;;;;;;;;;;;2203262;67;1928;-61
2022/06/06 13:28:14;;;;;;;;;;;;;;;;;;2203460;59;1297;-61
2022/06/06 13:30:59;;;;;;;;;;;;;;;;;;2203163;59;1818;-61
2022/06/06 13:33:42;;;;;;;;;;;;;;;;;;2202590;59;2400;-64
2022/06/06 13:36:21;;;;;;;;;;;;;;;;;;2203259;67;2975;-65
2022/06/06 13:39:01;;;;;;;;;;;;;;;;;;2201638;59;1661;-64
2022/06/06 13:41:45;;;;;;;;;;;;;;;;;;2202862;59;1890;-66
2022/06/06 13:44:42;;;;;;;;;;;;;;;;;;2203422;67;1926;-63
2022/06/06 13:47:22;;;;;;;;;;;;;;;;;;2199868;59;1611;-63
2022/06/06 13:50:05;;;;;;;;;;;;;;;;;;2203767;67;1180;-64
2022/06/06 13:52:48;;;;;;;;;;;;;;;;;;2204429;59;2081;-61
2022/06/06 13:55:26;;;;;;;;;;;;;;;;;;2204496;59;1185;-62
2022/06/06 13:58:24;;;;;;;;;;;;;;;;;;2199722;59;1811;-64
2022/06/06 14:01:05;;;;;;;;;;;;;;;;;;2199683;59;2088;-63
2022/06/06 14:03:51;;;;;;;;;;;;;;;;;;2202087;59;2064;-65
2022/06/06 14:06:35;;;;;;;;;;;;;;;;;;2199937;59;1994;-62
2022/06/06 14:09:08;;;;;;;;;;;;;;;;;;2199552;59;1727;-63
2022/06/06 14:11:48;;;;;;;;;;;;;;;;;;2199385;59;1889;-66
2022/06/06 14:14:26;;;;;;;;;;;;;;;;;;2203085;59;2066;-65
2022/06/06 14:17:02;;;;;;;;;;;;;;;;;;2203058;59;2131;-65
2022/06/06 14:19:38;;;;;;;;;;;;;;;;;;2204305;59;1196;-65
2022/06/06 14:22:11;;;;;;;;;;;;;;;;;;2204638;67;1171;-59
2022/06/06 14:24:54;;;;;;;;;;;;;;;;;;2204703;59;1927;-63
2022/06/06 14:27:27;;;;;;;;;;;;;;;;;;2204551;67;1264;-63
2022/06/06 14:30:06;;;;;;;;;;;;;;;;;;2205633;67;1304;-63
2022/06/06 14:32:52;;;;;;;;;;;;;;;;;;2205243;59;1255;-66
2022/06/06 14:35:29;;;;;;;;;;;;;;;;;;2203490;59;2180;-64
2022/06/06 14:38:13;;;;;;;;;;;;;;;;;;2203841;67;1106;-64
2022/06/06 14:40:50;;;;;;;;;;;;;;;;;;2203754;59;2247;-64
2022/06/06 14:43:23;;;;;;;;;;;;;;;;;;2204737;59;1338;-66
2022/06/06 14:46:03;;;;;;;;;;;;;;;;;;2204844;59;1979;-64
2022/06/06 14:48:40;;;;;;;;;;;;;;;;;;2203225;59;2124;-63
2022/06/06 14:51:15;;;;;;;;;;;;;;;;;;2203942;67;1227;-64
2022/06/06 14:53:51;;;;;;;;;;;;;;;;;;2203876;67;1166;-64
2022/06/06 14:56:28;;;;;;;;;;;;;;;;;;2204374;59;1091;-64
2022/06/06 14:59:04;;;;;;;;;;;;;;;;;;2204438;59;1201;-65
2022/06/06 15:01:41;;;;;;;;;;;;;;;;;;2202993;67;1320;-66
2022/06/06 15:04:24;;;;;;;;;;;;;;;;;;2203606;59;1424;-65
2022/06/06 15:06:59;;;;;;;;;;;;;;;;;;2203889;67;1216;-64
2022/06/06 15:09:37;;;;;;;;;;;;;;;;;;2203820;67;1250;-66
2022/06/06 15:12:23;;;;;;;;;;;;;;;;;;2204311;59;1357;-65
2022/06/06 15:14:58;;;;;;;;;;;;;;;;;;2204980;59;2149;-63
2022/06/06 15:17:37;;;;;;;;;;;;;;;;;;2205423;67;1204;-62
2022/06/06 15:20:20;;;;;;;;;;;;;;;;;;2202979;67;1200;-64
2022/06/06 15:22:54;;;;;;;;;;;;;;;;;;2204101;59;1763;-65
2022/06/06 15:25:32;;;;;;;;;;;;;;;;;;2204878;67;1947;-65
2022/06/06 15:28:10;;;;;;;;;;;;;;;;;;2203627;67;1185;-64
2022/06/06 15:30:45;;;;;;;;;;;;;;;;;;2202869;59;1680;-64
2022/06/06 15:33:25;;;;;;;;;;;;;;;;;;2203996;59;1501;-65
2022/06/06 15:36:01;;;;;;;;;;;;;;;;;;2202984;59;2392;-64
2022/06/06 15:38:49;;;;;;;;;;;;;;;;;;2204884;67;1260;-65
2022/06/06 15:41:29;;;;;;;;;;;;;;;;;;2204799;67;1986;-65
2022/06/06 15:44:05;;;;;;;;;;;;;;;;;;2204490;59;1184;-64
2022/06/06 15:46:44;;;;;;;;;;;;;;;;;;2205128;67;1947;-62
2022/06/06 15:49:38;;;;;;;;;;;;;;;;;;2205360;67;1187;-65
2022/06/06 15:52:24;;;;;;;;;;;;;;;;;;2205026;59;1574;-63
2022/06/06 15:55:01;;;;;;;;;;;;;;;;;;2203756;59;1235;-65
2022/06/06 15:57:39;;;;;;;;;;;;;;;;;;2203994;59;1301;-62
2022/06/06 16:00:22;;;;;;;;;;;;;;;;;;2203708;59;2122;-65
2022/06/06 16:03:13;;;;;;;;;;;;;;;;;;2204417;59;1256;-65
2022/06/06 16:05:49;;;;;;;;;;;;;;;;;;2202587;59;2275;-65
2022/06/06 16:08:32;;;;;;;;;;;;;;;;;;2206375;67;1215;-65
2022/06/06 16:11:10;;;;;;;;;;;;;;;;;;2205534;59;1396;-65
2022/06/06 16:13:59;;;;;;;;;;;;;;;;;;2205180;59;1232;-65
2022/06/06 16:16:35;;;;;;;;;;;;;;;;;;2204762;67;1214;-63
2022/06/06 16:19:14;;;;;;;;;;;;;;;;;;2204255;59;1173;-65
2022/06/06 16:21:51;;;;;;;;;;;;;;;;;;2205461;67;1120;-62
2022/06/06 16:24:30;;;;;;;;;;;;;;;;;;2206396;67;1310;-64
2022/06/06 16:27:09;;;;;;;;;;;;;;;;;;2204609;67;1988;-64
2022/06/06 16:29:45;;;;;;;;;;;;;;;;;;2204535;59;1632;-62
2022/06/06 16:32:29;;;;;;;;;;;;;;;;;;2203519;59;2166;-64
2022/06/06 16:35:04;;;;;;;;;;;;;;;;;;2203223;67;1093;-65
2022/06/06 16:37:56;;;;;;;;;;;;;;;;;;2202281;67;3102;-65
2022/06/06 16:40:49;;;;;;;;;;;;;;;;;;2205458;59;1973;-63
2022/06/06 16:49:22;;;;;;;;;;;;;;;;;;2205371;67;1151;-64
2022/06/06 16:52:01;;;;;;;;;;;;;;;;;;2205028;67;1116;-64
2022/06/06 16:54:40;;;;;;;;;;;;;;;;;;2205085;59;1219;-64
2022/06/06 16:57:21;;;;;;;;;;;;;;;;;;2204903;67;1299;-62
2022/06/06 16:59:58;;;;;;;;;;;;;;;;;;2204969;59;1331;-65
2022/06/06 17:02:44;;;;;;;;;;;;;;;;;;2203317;67;1136;-63
2022/06/06 17:05:20;;;;;;;;;;;;;;;;;;2204724;67;1926;-64
2022/06/06 17:07:59;;;;;;;;;;;;;;;;;;2205044;59;1160;-63
2022/06/06 17:10:45;;;;;;;;;;;;;;;;;;2205425;59;1497;-64
2022/06/06 17:13:35;;;;;;;;;;;;;;;;;;2205956;59;1676;-65
2022/06/06 17:16:23;;;;;;;;;;;;;;;;;;2204756;59;1930;-63
2022/06/06 17:19:00;;;;;;;;;;;;;;;;;;2203822;59;1840;-65
2022/06/06 17:21:36;;;;;;;;;;;;;;;;;;2204416;67;1208;-62
2022/06/06 17:24:29;;;;;;;;;;;;;;;;;;2205715;59;1146;-65
2022/06/06 17:27:04;;;;;;;;;;;;;;;;;;2204251;67;1990;-62
2022/06/06 17:29:48;;;;;;;;;;;;;;;;;;2205287;59;1212;-65
2022/06/06 17:32:25;;;;;;;;;;;;;;;;;;2204998;59;1282;-63
2022/06/06 17:35:16;;;;;;;;;;;;;;;;;;2204100;67;1032;-64
2022/06/06 17:38:01;;;;;;;;;;;;;;;;;;2202168;67;2477;-64
2022/06/06 17:40:38;;;;;;;;;;;;;;;;;;2203306;59;2006;-65
2022/06/06 17:43:11;;;;;;;;;;;;;;;;;;2206250;67;1216;-63
2022/06/06 17:45:59;;;;;;;;;;;;;;;;;;2205082;67;1933;-65
2022/06/06 17:48:40;;;;;;;;;;;;;;;;;;2204353;67;1191;-64
2022/06/06 17:51:20;;;;;;;;;;;;;;;;;;2204485;67;1244;-64
2022/06/06 17:53:58;;;;;;;;;;;;;;;;;;2203476;59;2033;-63
2022/06/06 17:56:38;;;;;;;;;;;;;;;;;;2203784;59;1234;-63
2022/06/06 17:59:19;;;;;;;;;;;;;;;;;;2203273;59;1454;-60
2022/06/06 18:02:10;;;;;;;;;;;;;;;;;;2204508;67;1170;-64
2022/06/06 18:05:10;;;;;;;;;;;;;;;;;;2205779;59;1289;-65
2022/06/06 18:07:50;;;;;;;;;;;;;;;;;;2200846;67;1927;-64
2022/06/06 18:10:25;;;;;;;;;;;;;;;;;;2201502;59;1806;-64
2022/06/06 18:13:09;;;;;;;;;;;;;;;;;;2201802;59;2113;-63
2022/06/06 18:15:47;;;;;;;;;;;;;;;;;;2202351;59;2128;-64
2022/06/06 18:18:24;;;;;;;;;;;;;;;;;;2203480;67;1195;-61
2022/06/06 18:20:59;;;;;;;;;;;;;;;;;;2203768;67;1277;-63
2022/06/06 18:23:38;;;;;;;;;;;;;;;;;;2204067;67;1206;-64
2022/06/06 18:26:23;;;;;;;;;;;;;;;;;;2203664;59;1938;-64
2022/06/06 18:28:58;;;;;;;;;;;;;;;;;;2203433;67;1206;-64
2022/06/06 18:31:35;;;;;;;;;;;;;;;;;;2203925;67;1322;-64
2022/06/06 18:34:27;;;;;;;;;;;;;;;;;;2205831;67;1167;-63
2022/06/06 18:37:05;;;;;;;;;;;;;;;;;;2204272;67;2128;-64
2022/06/06 18:39:48;;;;;;;;;;;;;;;;;;2201628;59;2674;-64
2022/06/06 18:42:24;;;;;;;;;;;;;;;;;;2203185;59;2103;-64
2022/06/06 18:44:59;;;;;;;;;;;;;;;;;;2204069;67;1198;-63
2022/06/06 18:47:35;;;;;;;;;;;;;;;;;;2202509;59;1995;-64
2022/06/06 18:50:10;;;;;;;;;;;;;;;;;;2203957;67;1199;-64
2022/06/06 18:52:46;;;;;;;;;;;;;;;;;;2203780;67;1137;-64
2022/06/06 18:55:20;;;;;;;;;;;;;;;;;;2204332;59;1193;-65
2022/06/06 18:57:58;;;;;;;;;;;;;;;;;;2204690;67;1301;-64
2022/06/06 19:00:32;;;;;;;;;;;;;;;;;;2203547;59;1297;-63
2022/06/06 19:03:06;;;;;;;;;;;;;;;;;;2205126;59;1249;-63
2022/06/06 19:05:40;;;;;;;;;;;;;;;;;;2204670;67;1238;-63
2022/06/06 19:08:21;;;;;;;;;;;;;;;;;;2204978;67;1924;-65
2022/06/06 19:11:09;;;;;;;;;;;;;;;;;;2204047;59;1735;-64